Time;durP1;ratioP1;P1;durP2;ratioP2;P2;SDS_P1;SDS_P2;PMS_P1;PMS_P2;Temp;Humidity;BMP_temperature;BMP_pressure;BME280_temperature;BME280_humidity;BME280_pressure;Samples;Min_cycle;Max_cycle;Signal;HPM_P1;HPM_P2
2023/09/24 00:02:12;;;;;;;5.75;2.67;;;14.00;99.90;;;;;;5008428;28;20268;-74
2023/09/24 00:04:58;;;;;;;6.28;2.90;;;14.00;99.90;;;;;;5024894;28;20069;-74
2023/09/24 00:07:44;;;;;;;7.18;2.78;;;13.90;99.90;;;;;;4986263;28;20076;-75
2023/09/24 00:10:30;;;;;;;6.40;2.90;;;13.90;99.90;;;;;;5007268;28;20660;-73
2023/09/24 00:13:17;;;;;;;8.55;3.15;;;13.90;99.90;;;;;;4997703;28;20125;-73
2023/09/24 00:16:06;;;;;;;6.72;2.92;;;14.00;99.90;;;;;;4985657;28;20046;-73
2023/09/24 00:18:52;;;;;;;7.57;3.00;;;13.90;99.90;;;;;;4998406;28;20080;-73
2023/09/24 00:21:37;;;;;;;5.03;3.00;;;14.00;99.90;;;;;;5002389;28;20072;-74
2023/09/24 00:24:23;;;;;;;7.28;3.08;;;13.90;99.90;;;;;;5008539;28;20038;-73
2023/09/24 00:27:10;;;;;;;7.28;2.78;;;14.00;99.90;;;;;;5001665;28;20041;-73
2023/09/24 00:29:56;;;;;;;6.18;3.47;;;13.90;99.90;;;;;;5017096;28;20046;-73
2023/09/24 00:32:42;;;;;;;9.18;3.15;;;14.00;99.90;;;;;;5028236;28;20052;-72
2023/09/24 00:35:28;;;;;;;6.78;3.35;;;14.00;99.90;;;;;;5025643;28;20049;-72
2023/09/24 00:38:13;;;;;;;6.25;3.35;;;13.90;99.90;;;;;;4993568;28;20041;-72
2023/09/24 00:41:00;;;;;;;7.72;3.53;;;13.90;99.90;;;;;;5000813;28;20041;-72
2023/09/24 00:43:46;;;;;;;9.18;3.47;;;13.90;99.90;;;;;;5022003;28;20049;-71
2023/09/24 00:46:32;;;;;;;8.27;3.75;;;13.90;99.90;;;;;;4999907;28;20038;-72
2023/09/24 00:49:18;;;;;;;6.47;3.90;;;13.90;99.90;;;;;;4996397;28;20041;-72
2023/09/24 00:52:04;;;;;;;8.63;3.63;;;13.90;99.90;;;;;;5020648;28;20072;-72
2023/09/24 00:54:50;;;;;;;9.60;4.68;;;13.80;99.90;;;;;;4998068;28;20100;-73
2023/09/24 00:57:36;;;;;;;9.48;4.20;;;13.80;99.90;;;;;;5015141;28;20049;-73
2023/09/24 01:00:28;;;;;;;6.03;4.10;;;13.80;99.90;;;;;;5024565;28;20068;-73
2023/09/24 01:03:14;;;;;;;8.57;4.47;;;13.80;99.90;;;;;;5004625;28;20045;-73
2023/09/24 01:06:00;;;;;;;8.02;4.00;;;13.80;99.90;;;;;;4993367;28;20103;-73
2023/09/24 01:08:46;;;;;;;9.65;4.30;;;13.80;99.90;;;;;;5017908;28;20820;-73
2023/09/24 01:11:33;;;;;;;8.02;3.55;;;13.70;99.90;;;;;;4999909;28;20199;-73
2023/09/24 01:14:19;;;;;;;7.80;4.15;;;13.80;99.90;;;;;;5023478;28;20041;-73
2023/09/24 01:17:05;;;;;;;9.32;4.47;;;13.80;99.90;;;;;;4994915;28;20083;-73
2023/09/24 01:19:54;;;;;;;6.65;4.38;;;13.80;99.90;;;;;;5001930;28;20064;-73
2023/09/24 01:22:40;;;;;;;7.82;4.10;;;13.80;99.90;;;;;;5000813;28;20124;-73
2023/09/24 01:25:26;;;;;;;9.07;5.07;;;13.80;99.90;;;;;;5003733;28;20048;-73
2023/09/24 01:28:14;;;;;;;7.70;4.53;;;13.70;99.90;;;;;;5011156;28;20157;-73
2023/09/24 01:31:00;;;;;;;8.95;5.28;;;13.70;99.90;;;;;;5002492;28;20041;-73
2023/09/24 01:33:47;;;;;;;10.00;5.53;;;13.70;99.90;;;;;;5001453;28;20410;-73
2023/09/24 01:36:34;;;;;;;7.05;5.05;;;13.70;99.90;;;;;;5006891;28;20037;-73
2023/09/24 01:39:25;;;;;;;9.75;5.28;;;13.70;99.90;;;;;;5003430;28;20478;-73
2023/09/24 01:42:13;;;;;;;7.43;4.68;;;13.70;99.90;;;;;;4995882;28;20061;-73
2023/09/24 01:44:59;;;;;;;9.50;5.32;;;13.70;99.90;;;;;;5003007;28;20034;-73
2023/09/24 01:47:49;;;;;;;6.75;5.45;;;13.80;99.90;;;;;;5028540;28;20342;-73
2023/09/24 01:50:36;;;;;;;8.63;4.93;;;13.80;99.90;;;;;;4990980;28;20033;-73
2023/09/24 01:53:23;;;;;;;9.60;4.70;;;13.90;99.90;;;;;;5012221;28;20496;-74
2023/09/24 01:56:09;;;;;;;7.47;5.85;;;13.90;99.90;;;;;;4993367;28;20073;-73
2023/09/24 01:58:56;;;;;;;8.52;4.80;;;13.90;99.90;;;;;;4990062;28;20059;-73
2023/09/24 02:01:44;;;;;;;10.40;5.20;;;13.90;99.90;;;;;;5024173;28;20073;-73
2023/09/24 02:04:30;;;;;;;7.35;5.43;;;13.90;99.90;;;;;;5001868;28;20044;-73
2023/09/24 02:07:16;;;;;;;8.45;5.30;;;14.00;99.90;;;;;;5003040;28;20388;-72
2023/09/24 02:10:05;;;;;;;11.30;5.88;;;14.00;99.90;;;;;;4993397;28;20041;-72
2023/09/24 02:12:51;;;;;;;7.72;5.55;;;14.00;99.90;;;;;;5002608;28;20045;-72
2023/09/24 02:15:38;;;;;;;8.32;4.78;;;14.00;99.90;;;;;;4982576;28;20046;-72
2023/09/24 02:18:27;;;;;;;7.60;5.18;;;14.10;99.90;;;;;;4983744;28;20124;-71
2023/09/24 02:21:14;;;;;;;8.95;5.05;;;14.10;99.90;;;;;;4995909;28;20045;-73
2023/09/24 02:24:00;;;;;;;8.55;5.10;;;14.10;99.90;;;;;;4990053;28;20037;-74
2023/09/24 02:26:46;;;;;;;10.40;5.00;;;14.10;99.90;;;;;;5006769;28;20052;-73
2023/09/24 02:29:32;;;;;;;9.43;5.68;;;14.20;99.90;;;;;;5006883;28;20120;-73
2023/09/24 02:32:18;;;;;;;6.35;4.90;;;14.20;99.90;;;;;;5006159;28;20033;-73
2023/09/24 02:35:05;;;;;;;7.38;4.95;;;14.10;99.90;;;;;;5002596;28;20053;-73
2023/09/24 02:37:51;;;;;;;8.98;5.47;;;14.10;99.90;;;;;;4993548;28;20045;-73
2023/09/24 02:40:38;;;;;;;9.55;6.60;;;14.20;99.90;;;;;;4995690;28;20049;-73
2023/09/24 02:43:24;;;;;;;8.75;5.47;;;14.20;99.90;;;;;;5000575;28;20038;-73
2023/09/24 02:46:11;;;;;;;8.95;5.47;;;14.20;99.90;;;;;;4989538;28;20049;-73
2023/09/24 02:48:57;;;;;;;7.80;5.07;;;14.20;99.90;;;;;;4979289;28;20045;-73
2023/09/24 02:51:44;;;;;;;10.55;5.35;;;14.20;99.90;;;;;;4999095;28;20382;-73
2023/09/24 02:54:30;;;;;;;8.35;4.68;;;14.30;99.90;;;;;;5015428;28;20029;-73
2023/09/24 02:57:17;;;;;;;9.40;5.00;;;14.20;99.90;;;;;;5003167;28;20061;-73
2023/09/24 03:03:15;;;;;;;10.07;4.78;;;14.30;99.90;;;;;;5003207;28;20045;-74
2023/09/24 03:06:02;;;;;;;8.07;5.10;;;14.30;99.90;;;;;;5017033;28;20037;-73
2023/09/24 03:08:49;;;;;;;10.05;5.18;;;14.30;99.90;;;;;;5030527;28;20113;-74
2023/09/24 03:11:35;;;;;;;10.75;6.05;;;14.30;99.90;;;;;;4976459;28;20038;-73
2023/09/24 03:14:21;;;;;;;10.23;5.43;;;14.30;99.90;;;;;;5010243;28;20079;-73
2023/09/24 03:17:07;;;;;;;8.25;5.18;;;14.30;99.90;;;;;;4996174;28;20124;-73
2023/09/24 03:19:53;;;;;;;11.40;5.47;;;14.30;99.90;;;;;;5030445;28;20120;-74
2023/09/24 03:22:39;;;;;;;6.32;5.68;;;14.30;99.90;;;;;;5003557;28;20037;-74
2023/09/24 03:25:25;;;;;;;8.35;5.30;;;14.40;99.90;;;;;;5031402;28;20482;-73
2023/09/24 03:28:11;;;;;;;8.15;5.72;;;14.40;99.90;;;;;;5018436;28;20128;-73
2023/09/24 03:30:58;;;;;;;7.57;5.72;;;14.40;99.90;;;;;;5000150;28;20054;-73
2023/09/24 03:33:44;;;;;;;9.05;4.95;;;14.40;99.90;;;;;;5005114;28;20052;-73
2023/09/24 03:36:30;;;;;;;7.15;5.70;;;14.40;99.90;;;;;;4992297;28;20068;-73
2023/09/24 03:39:16;;;;;;;8.40;5.75;;;14.40;99.90;;;;;;5026520;28;20056;-73
2023/09/24 03:42:05;;;;;;;9.00;5.80;;;14.40;99.90;;;;;;5029387;28;20048;-73
2023/09/24 03:44:51;;;;;;;9.15;5.45;;;14.50;99.90;;;;;;5018214;28;20037;-73
2023/09/24 03:47:38;;;;;;;9.45;5.38;;;14.40;99.90;;;;;;5009155;28;20884;-73
2023/09/24 03:50:24;;;;;;;9.93;5.72;;;14.40;99.90;;;;;;4991503;28;20050;-73
2023/09/24 03:53:10;;;;;;;8.05;5.93;;;14.40;99.90;;;;;;5012332;28;20490;-73
2023/09/24 03:55:56;;;;;;;9.32;6.55;;;14.40;99.90;;;;;;4990069;28;20087;-73
2023/09/24 03:58:42;;;;;;;12.05;6.88;;;14.40;99.90;;;;;;5031360;28;20045;-74
2023/09/24 04:01:28;;;;;;;9.43;7.28;;;14.30;99.90;;;;;;5010052;28;20053;-73
2023/09/24 04:04:14;;;;;;;11.55;6.60;;;14.40;99.90;;;;;;5010764;28;20039;-73
2023/09/24 04:07:01;;;;;;;7.80;5.93;;;14.30;99.90;;;;;;4999841;28;20041;-73
2023/09/24 04:09:50;;;;;;;10.32;6.45;;;14.40;99.90;;;;;;4984508;28;20081;-74
2023/09/24 04:12:36;;;;;;;10.93;6.68;;;14.40;99.90;;;;;;4996078;28;20349;-74
2023/09/24 04:15:27;;;;;;;10.73;6.78;;;14.30;99.90;;;;;;5002243;28;20080;-73
2023/09/24 04:18:14;;;;;;;14.57;7.30;;;14.30;99.90;;;;;;4983818;28;20439;-74
2023/09/24 04:21:00;;;;;;;12.80;8.20;;;14.30;99.90;;;;;;4988932;28;20049;-74
2023/09/24 04:23:46;;;;;;;9.82;7.82;;;14.20;99.90;;;;;;5003771;28;20779;-73
2023/09/24 04:26:34;;;;;;;9.80;7.65;;;14.10;99.90;;;;;;5008861;28;20037;-73
2023/09/24 04:29:20;;;;;;;11.00;7.55;;;14.20;99.90;;;;;;4986500;28;20053;-73
2023/09/24 04:32:06;;;;;;;11.73;7.72;;;14.30;99.90;;;;;;4992892;28;20148;-73
2023/09/24 04:34:55;;;;;;;11.80;7.97;;;14.30;99.90;;;;;;4980584;28;20374;-74
2023/09/24 04:37:41;;;;;;;13.02;8.52;;;14.30;99.90;;;;;;5000326;28;20135;-73
2023/09/24 04:40:27;;;;;;;8.00;6.97;;;14.20;99.90;;;;;;4995396;28;20049;-73
2023/09/24 04:43:15;;;;;;;11.10;7.85;;;14.20;99.90;;;;;;5026458;28;20043;-73
2023/09/24 04:46:07;;;;;;;11.45;8.93;;;14.30;99.90;;;;;;5012865;28;20037;-73
2023/09/24 04:48:53;;;;;;;11.65;7.82;;;14.20;99.90;;;;;;5015870;28;20045;-73
2023/09/24 04:51:39;;;;;;;13.60;9.27;;;14.20;99.90;;;;;;4981564;28;20041;-73
2023/09/24 04:54:25;;;;;;;11.00;8.23;;;14.20;99.90;;;;;;5007615;28;20038;-73
2023/09/24 04:57:11;;;;;;;10.82;7.75;;;14.20;99.90;;;;;;5020759;28;20076;-73
2023/09/24 04:59:58;;;;;;;13.27;9.30;;;14.30;99.90;;;;;;5030988;28;20128;-73
2023/09/24 05:02:44;;;;;;;12.33;8.70;;;14.30;99.90;;;;;;5000151;28;20168;-73
2023/09/24 05:05:30;;;;;;;12.18;8.90;;;14.20;99.90;;;;;;5017646;28;20100;-73
2023/09/24 05:08:16;;;;;;;14.35;10.05;;;14.20;99.90;;;;;;5001562;28;20041;-73
2023/09/24 05:11:03;;;;;;;10.02;8.07;;;14.10;99.90;;;;;;4980037;28;20057;-74
2023/09/24 05:13:49;;;;;;;15.75;9.15;;;14.10;99.90;;;;;;5000690;28;20458;-74
2023/09/24 05:16:35;;;;;;;14.32;8.70;;;14.10;99.90;;;;;;5029209;28;20525;-73
2023/09/24 05:19:21;;;;;;;12.68;8.80;;;14.20;99.90;;;;;;5006181;28;20085;-73
2023/09/24 05:22:07;;;;;;;13.00;8.88;;;14.20;99.90;;;;;;4994935;28;20041;-73
2023/09/24 05:24:53;;;;;;;9.95;7.95;;;14.20;99.90;;;;;;4999711;28;20081;-73
2023/09/24 05:27:39;;;;;;;13.95;8.57;;;14.20;99.90;;;;;;5025538;28;20108;-73
2023/09/24 05:30:26;;;;;;;12.70;8.63;;;14.20;99.90;;;;;;4995821;28;20045;-73
2023/09/24 05:33:12;;;;;;;10.20;8.27;;;14.20;99.90;;;;;;5015956;28;20508;-73
2023/09/24 05:35:58;;;;;;;11.25;8.20;;;14.20;99.90;;;;;;5019703;28;20049;-73
2023/09/24 05:38:44;;;;;;;11.10;7.93;;;14.20;99.90;;;;;;5012167;28;20037;-73
2023/09/24 05:41:30;;;;;;;11.35;8.60;;;14.20;99.90;;;;;;5008643;28;20409;-73
2023/09/24 05:44:17;;;;;;;11.75;8.10;;;14.20;99.90;;;;;;5002185;28;20038;-73
2023/09/24 05:47:06;;;;;;;10.32;8.45;;;14.20;99.90;;;;;;5011270;28;20470;-74
2023/09/24 05:49:53;;;;;;;11.18;8.85;;;14.20;99.90;;;;;;5033955;28;20191;-74
2023/09/24 05:52:39;;;;;;;10.88;8.20;;;14.20;99.90;;;;;;5020156;28;20041;-73
2023/09/24 05:55:25;;;;;;;9.45;8.10;;;14.20;99.90;;;;;;5017067;28;20042;-73
2023/09/24 05:58:11;;;;;;;11.32;8.30;;;14.20;99.90;;;;;;4980831;28;20056;-74
2023/09/24 06:00:58;;;;;;;13.13;8.38;;;14.20;99.90;;;;;;5018444;28;20041;-74
2023/09/24 06:03:44;;;;;;;13.15;8.13;;;14.20;99.90;;;;;;5006105;28;20366;-74
2023/09/24 06:06:30;;;;;;;12.43;8.18;;;14.20;99.90;;;;;;4988924;28;20037;-73
2023/09/24 06:09:17;;;;;;;10.95;8.23;;;14.20;99.90;;;;;;5026392;28;20052;-73
2023/09/24 06:12:03;;;;;;;8.98;7.30;;;14.20;99.90;;;;;;5017892;28;20422;-73
2023/09/24 06:14:49;;;;;;;9.23;7.57;;;14.20;99.90;;;;;;5031214;28;20045;-73
2023/09/24 06:17:35;;;;;;;11.10;7.85;;;14.20;99.90;;;;;;4985456;28;20046;-73
2023/09/24 06:20:21;;;;;;;13.52;8.23;;;14.20;99.90;;;;;;4994788;28;20053;-73
2023/09/24 06:23:08;;;;;;;9.85;6.82;;;14.20;99.90;;;;;;5006432;28;20060;-74
2023/09/24 06:25:55;;;;;;;10.27;6.60;;;14.20;99.90;;;;;;5006759;28;20216;-73
2023/09/24 06:28:41;;;;;;;10.73;6.68;;;14.30;99.90;;;;;;5015603;28;20274;-73
2023/09/24 06:31:27;;;;;;;8.73;6.15;;;14.30;99.90;;;;;;5008564;28;20128;-74
2023/09/24 06:34:13;;;;;;;9.05;6.20;;;14.40;99.90;;;;;;4994072;28;20474;-73
2023/09/24 06:37:00;;;;;;;12.60;6.20;;;14.40;99.90;;;;;;5019143;28;20057;-74
2023/09/24 06:39:46;;;;;;;9.40;5.82;;;14.40;99.90;;;;;;5015837;28;20493;-73
2023/09/24 06:42:32;;;;;;;8.52;5.13;;;14.40;99.90;;;;;;5020599;28;20041;-73
2023/09/24 06:45:18;;;;;;;7.10;4.90;;;14.40;99.90;;;;;;5005521;28;20076;-74
2023/09/24 06:48:04;;;;;;;7.88;5.30;;;14.50;99.90;;;;;;4994523;28;20069;-73
2023/09/24 06:50:50;;;;;;;7.90;5.40;;;14.50;99.90;;;;;;5019690;28;20038;-73
2023/09/24 06:53:37;;;;;;;9.73;5.57;;;14.50;99.90;;;;;;5000221;28;20080;-73
2023/09/24 06:56:23;;;;;;;8.95;5.15;;;14.50;99.90;;;;;;4991316;28;20057;-73
2023/09/24 06:59:10;;;;;;;7.70;5.63;;;14.50;99.90;;;;;;5025907;28;20133;-73
2023/09/24 07:01:55;;;;;;;9.90;5.07;;;14.50;99.90;;;;;;5008103;28;20183;-73
2023/09/24 07:04:41;;;;;;;7.18;5.15;;;14.50;99.90;;;;;;4985302;28;20477;-74
2023/09/24 07:07:29;;;;;;;6.85;5.72;;;14.50;99.90;;;;;;5016953;28;20140;-73
2023/09/24 07:10:15;;;;;;;6.97;4.65;;;14.50;99.90;;;;;;5012321;28;20069;-73
2023/09/24 07:13:03;;;;;;;7.00;4.80;;;14.50;99.90;;;;;;5003956;28;20037;-73
2023/09/24 07:15:49;;;;;;;;;;;14.50;99.90;;;;;;5034491;28;20219;-72
2023/09/24 07:18:35;;;;;;;8.77;4.60;;;14.60;99.90;;;;;;5015249;28;19924;-73
2023/09/24 07:21:24;;;;;;;6.03;4.40;;;14.60;99.90;;;;;;5024783;28;20523;-73
2023/09/24 07:24:10;;;;;;;7.18;4.50;;;14.60;99.90;;;;;;4999639;28;20490;-73
2023/09/24 07:27:02;;;;;;;9.20;5.30;;;14.60;99.90;;;;;;4983064;28;20033;-74
2023/09/24 07:29:48;;;;;;;7.40;5.25;;;14.60;99.90;;;;;;5013878;28;20052;-73
2023/09/24 07:32:34;;;;;;;7.78;5.25;;;14.60;99.90;;;;;;5012563;28;20468;-73
2023/09/24 07:35:20;;;;;;;8.85;5.10;;;14.60;99.90;;;;;;4976573;28;20049;-73
2023/09/24 07:38:06;;;;;;;9.32;5.10;;;14.70;99.90;;;;;;4995450;28;20132;-73
2023/09/24 07:40:54;;;;;;;7.40;4.97;;;14.80;99.90;;;;;;5013374;28;20046;-73
2023/09/24 07:43:42;;;;;;;8.50;4.40;;;14.80;99.90;;;;;;5014635;28;20124;-73
2023/09/24 07:46:28;;;;;;;;;;;14.90;99.90;;;;;;5002156;28;20099;-73
2023/09/24 07:49:15;;;;;;;9.82;5.93;;;14.90;99.90;;;;;;5013333;28;19909;-73
2023/09/24 07:52:01;;;;;;;5.90;4.50;;;14.90;99.90;;;;;;5007162;28;20067;-73
2023/09/24 07:54:48;;;;;;;8.82;4.68;;;15.10;99.90;;;;;;5015800;28;20072;-73
2023/09/24 07:57:34;;;;;;;8.20;5.73;;;15.10;99.90;;;;;;5019970;28;20069;-73
2023/09/24 08:00:20;;;;;;;7.55;4.60;;;15.10;99.90;;;;;;4993803;28;20137;-73
2023/09/24 08:03:06;;;;;;;5.47;4.43;;;15.20;99.90;;;;;;5002472;28;20057;-73
2023/09/24 08:05:52;;;;;;;9.00;3.95;;;15.30;99.90;;;;;;4999839;28;20041;-73
2023/09/24 08:08:38;;;;;;;10.32;4.15;;;15.30;99.90;;;;;;5024115;28;20143;-73
2023/09/24 08:11:24;;;;;;;7.20;4.50;;;15.30;99.90;;;;;;4987391;28;20064;-73
2023/09/24 08:14:10;;;;;;;8.48;5.50;;;15.20;99.90;;;;;;5019846;28;20064;-73
2023/09/24 08:16:56;;;;;;;6.82;5.10;;;15.10;99.90;;;;;;4990433;28;20107;-73
2023/09/24 08:19:42;;;;;;;8.45;4.55;;;15.10;99.90;;;;;;5007574;28;20132;-73
2023/09/24 08:22:28;;;;;;;11.88;5.63;;;15.10;99.90;;;;;;5006181;28;20397;-73
2023/09/24 08:25:14;;;;;;;6.90;5.00;;;15.00;99.90;;;;;;5002162;28;20052;-73
2023/09/24 08:28:01;;;;;;;6.93;4.60;;;15.10;99.90;;;;;;5016597;28;20030;-73
2023/09/24 08:30:48;;;;;;;8.05;4.85;;;15.10;99.90;;;;;;5019531;28;20423;-73
2023/09/24 08:33:34;;;;;;;5.88;4.80;;;15.10;99.90;;;;;;5010687;28;20045;-73
2023/09/24 08:36:21;;;;;;;7.07;4.78;;;15.10;99.90;;;;;;4992708;28;20076;-73
2023/09/24 08:39:08;;;;;;;8.02;4.32;;;15.10;99.90;;;;;;5003418;28;20037;-73
2023/09/24 08:41:54;;;;;;;6.82;4.07;;;15.10;99.90;;;;;;4996947;28;20041;-73
2023/09/24 08:44:41;;;;;;;7.20;4.18;;;15.10;99.90;;;;;;4992831;28;20041;-74
2023/09/24 08:47:27;;;;;;;10.55;4.15;;;15.10;99.90;;;;;;4996572;28;20087;-74
2023/09/24 08:50:14;;;;;;;6.18;4.68;;;15.20;99.90;;;;;;5002856;28;20127;-73
2023/09/24 08:53:01;;;;;;;5.82;3.33;;;15.40;99.90;;;;;;4990528;28;20032;-74
2023/09/24 08:55:47;;;;;;;9.15;4.15;;;15.40;99.90;;;;;;4998339;28;20419;-74
2023/09/24 08:58:33;;;;;;;7.80;3.75;;;15.50;99.90;;;;;;5016472;28;20136;-73
2023/09/24 09:01:20;;;;;;;6.68;4.00;;;15.50;99.90;;;;;;4996301;28;20049;-73
2023/09/24 09:04:06;;;;;;;6.83;3.50;;;15.60;99.90;;;;;;4985305;28;20048;-74
2023/09/24 09:06:52;;;;;;;5.53;3.15;;;15.70;99.90;;;;;;5003640;28;20048;-74
2023/09/24 09:09:38;;;;;;;4.18;2.20;;;15.70;99.90;;;;;;5017338;28;20045;-74
2023/09/24 09:12:26;;;;;;;4.85;2.42;;;15.70;99.90;;;;;;5015618;28;20388;-74
2023/09/24 09:15:18;;;;;;;5.65;2.50;;;15.60;99.90;;;;;;5032011;28;20052;-74
2023/09/24 09:18:04;;;;;;;6.72;2.25;;;15.60;99.90;;;;;;5005345;28;20037;-74
2023/09/24 09:20:50;;;;;;;6.75;2.97;;;15.60;99.90;;;;;;5005497;28;20061;-74
2023/09/24 09:23:44;;;;;;;4.70;2.72;;;15.70;99.90;;;;;;5015555;28;20033;-75
2023/09/24 09:26:30;;;;;;;5.60;2.60;;;15.80;99.90;;;;;;4995002;28;20128;-74
2023/09/24 09:29:27;;;;;;;6.70;2.40;;;15.80;99.90;;;;;;4986186;28;20045;-74
2023/09/24 09:32:13;;;;;;;4.72;2.30;;;15.80;99.90;;;;;;5022969;28;20917;-74
2023/09/24 09:34:59;;;;;;;4.57;1.98;;;15.90;99.90;;;;;;5000135;28;20116;-74
2023/09/24 09:37:47;;;;;;;4.22;2.00;;;16.00;99.90;;;;;;4994022;28;20329;-72
2023/09/24 09:40:33;;;;;;;6.15;2.15;;;16.10;99.90;;;;;;5009082;28;20125;-72
2023/09/24 09:43:20;;;;;;;3.60;2.03;;;16.10;99.90;;;;;;5021550;28;20181;-72
2023/09/24 09:46:07;;;;;;;4.97;1.83;;;16.00;99.90;;;;;;4984249;28;20048;-72
2023/09/24 09:48:57;;;;;;;3.38;1.80;;;16.00;99.90;;;;;;5001790;28;20045;-72
2023/09/24 09:51:47;;;;;;;4.05;1.80;;;16.10;99.90;;;;;;5006834;28;20057;-72
2023/09/24 09:54:36;;;;;;;3.47;2.08;;;16.20;99.90;;;;;;5006578;28;20179;-72
2023/09/24 09:57:24;;;;;;;3.85;1.77;;;16.40;99.90;;;;;;4989945;28;20042;-72
2023/09/24 10:00:11;;;;;;;2.40;1.42;;;16.50;99.90;;;;;;4982800;28;20042;-73
2023/09/24 10:02:57;;;;;;;3.53;1.40;;;16.70;99.90;;;;;;4999769;28;20033;-72
2023/09/24 10:05:50;;;;;;;3.40;1.50;;;17.00;99.90;;;;;;5014270;28;20038;-72
2023/09/24 10:08:39;;;;;;;3.63;1.60;;;17.10;99.90;;;;;;5019326;28;20045;-72
2023/09/24 10:11:31;;;;;;;2.53;1.35;;;17.30;99.90;;;;;;5027355;28;20077;-72
2023/09/24 10:14:31;;;;;;;7.75;1.45;;;17.50;99.90;;;;;;5034101;28;20037;-72
2023/09/24 10:17:17;;;;;;;3.25;1.38;;;17.60;99.90;;;;;;5013901;28;20053;-72
2023/09/24 10:20:08;;;;;;;2.67;1.20;;;17.80;99.90;;;;;;5027639;28;20505;-72
2023/09/24 10:22:54;;;;;;;3.97;1.20;;;17.90;99.90;;;;;;5024761;28;20637;-72
2023/09/24 10:25:45;;;;;;;3.55;1.27;;;18.10;99.90;;;;;;5016889;28;20091;-72
2023/09/24 10:28:58;;;;;;;2.63;1.40;;;18.20;99.90;;;;;;4989030;28;20041;-72
2023/09/24 10:32:05;;;;;;;4.25;1.60;;;18.10;99.90;;;;;;5026756;28;20034;-72
2023/09/24 10:34:54;;;;;;;3.13;1.55;;;18.00;99.90;;;;;;5020032;28;20037;-72
2023/09/24 10:37:57;;;;;;;3.70;1.45;;;17.70;99.90;;;;;;5020512;28;20485;-72
2023/09/24 10:41:03;;;;;;;3.03;1.17;;;18.10;99.90;;;;;;4992302;28;20146;-73
2023/09/24 10:44:26;;;;;;;3.47;1.38;;;19.20;98.90;;;;;;4988271;28;20065;-73
2023/09/24 10:47:29;;;;;;;3.78;1.20;;;19.40;99.10;;;;;;5025799;28;20183;-74
2023/09/24 10:50:19;;;;;;;2.03;1.20;;;20.20;96.00;;;;;;4989297;28;20335;-73
2023/09/24 10:53:05;;;;;;;3.58;1.00;;;19.10;97.40;;;;;;4994680;28;20042;-73
2023/09/24 10:55:51;;;;;;;2.42;1.10;;;18.60;97.80;;;;;;5004846;28;20052;-73
2023/09/24 10:58:38;;;;;;;2.63;1.55;;;18.30;98.70;;;;;;5028682;28;20489;-72
2023/09/24 11:01:30;;;;;;;2.20;1.43;;;18.10;99.40;;;;;;5020412;28;20487;-73
2023/09/24 11:04:25;;;;;;;3.38;1.30;;;18.10;99.90;;;;;;5019468;28;20288;-76
2023/09/24 11:07:11;;;;;;;3.85;1.42;;;17.90;99.90;;;;;;5007733;28;20482;-76
2023/09/24 11:09:57;;;;;;;3.53;1.40;;;17.70;99.90;;;;;;4987682;28;20046;-76
2023/09/24 11:12:50;;;;;;;4.65;1.60;;;17.70;99.90;;;;;;5008802;28;20045;-77
2023/09/24 11:15:38;;;;;;;4.75;1.52;;;17.80;99.90;;;;;;5008927;28;20056;-77
2023/09/24 11:18:26;;;;;;;2.13;1.20;;;18.00;99.90;;;;;;5010261;28;20045;-77
2023/09/24 11:21:12;;;;;;;;;;;18.20;99.90;;;;;;5019478;28;20053;-77
2023/09/24 11:23:58;;;;;;;2.78;1.35;;;18.30;99.90;;;;;;5034193;28;19999;-76
2023/09/24 11:26:44;;;;;;;3.50;1.30;;;18.30;99.70;;;;;;5008875;28;20160;-76
2023/09/24 11:29:30;;;;;;;3.85;1.20;;;18.10;99.40;;;;;;4988016;28;20042;-76
2023/09/24 11:32:28;;;;;;;2.72;1.00;;;18.20;99.70;;;;;;5025925;28;20048;-77
2023/09/24 11:35:16;;;;;;;4.40;1.40;;;18.40;99.70;;;;;;5022139;28;20116;-77
2023/09/24 11:38:02;;;;;;;4.35;1.20;;;18.80;99.20;;;;;;5002134;28;20127;-76
2023/09/24 11:40:48;;;;;;;2.28;1.13;;;18.90;98.50;;;;;;4989287;28;20046;-78
2023/09/24 11:43:35;;;;;;;2.25;1.27;;;19.20;98.50;;;;;;5027681;28;20659;-77
2023/09/24 11:46:28;;;;;;;2.35;1.20;;;19.50;97.50;;;;;;5000176;28;20535;-77
2023/09/24 11:49:14;;;;;;;3.40;1.10;;;19.70;98.10;;;;;;5034794;28;20037;-77
2023/09/24 11:52:07;;;;;;;2.00;1.10;;;20.00;96.90;;;;;;5007535;28;20095;-78
2023/09/24 11:54:53;;;;;;;2.60;0.90;;;20.10;96.40;;;;;;5009139;28;20030;-78
2023/09/24 11:57:39;;;;;;;2.80;1.08;;;20.30;96.70;;;;;;4988611;28;20041;-78
2023/09/24 12:00:25;;;;;;;4.15;1.58;;;20.50;96.40;;;;;;5007498;28;20393;-78
2023/09/24 12:03:11;;;;;;;2.88;1.40;;;20.40;95.40;;;;;;4991989;28;20493;-78
2023/09/24 12:05:57;;;;;;;3.03;1.33;;;20.50;95.40;;;;;;5021330;28;20041;-79
2023/09/24 12:08:43;;;;;;;2.65;1.40;;;20.90;96.20;;;;;;5030208;28;20493;-77
2023/09/24 12:11:29;;;;;;;2.65;1.20;;;21.10;95.10;;;;;;5016652;28;20057;-78
2023/09/24 12:14:15;;;;;;;3.28;1.40;;;21.30;93.80;;;;;;4996718;28;20413;-79
2023/09/24 12:17:01;;;;;;;5.45;1.40;;;21.50;94.30;;;;;;5006730;28;20037;-78
2023/09/24 12:19:49;;;;;;;2.28;1.00;;;21.80;94.50;;;;;;4981796;28;20111;-79
2023/09/24 12:22:35;;;;;;;2.42;1.27;;;21.90;93.20;;;;;;4990083;28;20037;-78
2023/09/24 12:25:21;;;;;;;2.20;1.05;;;22.20;94.10;;;;;;4988859;28;20048;-78
2023/09/24 12:28:09;;;;;;;4.15;1.25;;;21.90;92.40;;;;;;4992030;28;20687;-79
2023/09/24 12:30:55;;;;;;;2.97;1.20;;;21.60;93.00;;;;;;5017623;28;20038;-79
2023/09/24 12:33:40;;;;;;;3.58;1.20;;;21.30;93.00;;;;;;5019725;28;20073;-78
2023/09/24 12:36:28;;;;;;;1.20;1.08;;;21.30;93.60;;;;;;4996645;28;20546;-79
2023/09/24 12:39:19;;;;;;;3.25;1.17;;;21.60;92.70;;;;;;5022337;28;20053;-79
2023/09/24 12:42:05;;;;;;;2.20;1.08;;;21.70;92.70;;;;;;5008723;28;20045;-79
2023/09/24 12:44:52;;;;;;;3.42;1.10;;;21.90;92.20;;;;;;5001174;28;20038;-78
2023/09/24 12:47:39;;;;;;;1.70;0.90;;;22.10;92.10;;;;;;5020368;28;20045;-79
2023/09/24 12:50:26;;;;;;;4.25;1.20;;;22.00;91.10;;;;;;5002024;28;20037;-81
2023/09/24 12:53:12;;;;;;;2.00;1.05;;;22.60;91.70;;;;;;4995157;28;20038;-78
2023/09/24 12:55:58;;;;;;;4.10;1.25;;;22.50;90.70;;;;;;4993995;28;20132;-78
2023/09/24 12:58:45;;;;;;;1.55;1.08;;;22.80;89.60;;;;;;5006178;28;20045;-76
2023/09/24 13:01:30;;;;;;;3.60;1.20;;;22.90;89.30;;;;;;4993628;28;20052;-76
2023/09/24 13:04:16;;;;;;;2.92;1.42;;;23.00;89.70;;;;;;5014986;28;20128;-76
2023/09/24 13:07:02;;;;;;;2.70;1.23;;;22.60;87.20;;;;;;4996646;28;20048;-76
2023/09/24 13:09:48;;;;;;;1.88;1.10;;;22.90;88.80;;;;;;4989489;28;20505;-75
2023/09/24 13:12:34;;;;;;;2.72;1.20;;;23.40;87.40;;;;;;5009207;28;20076;-75
2023/09/24 13:15:20;;;;;;;2.25;1.00;;;23.40;86.40;;;;;;5000315;28;20045;-74
2023/09/24 13:18:06;;;;;;;2.65;1.13;;;24.00;86.90;;;;;;5012896;28;20072;-74
2023/09/24 13:20:52;;;;;;;3.15;1.20;;;24.50;85.50;;;;;;5010734;28;20455;-74
2023/09/24 13:23:38;;;;;;;3.10;1.00;;;24.70;82.50;;;;;;5021346;28;20030;-74
2023/09/24 13:26:24;;;;;;;2.67;1.17;;;24.20;81.40;;;;;;5003900;28;20583;-75
2023/09/24 13:29:10;;;;;;;4.63;1.20;;;23.70;84.00;;;;;;5009328;28;20038;-75
2023/09/24 13:31:56;;;;;;;1.77;1.05;;;23.90;84.40;;;;;;5026794;28;20038;-75
2023/09/24 13:34:42;;;;;;;1.60;1.00;;;24.20;83.80;;;;;;4985939;28;20057;-75
2023/09/24 13:37:28;;;;;;;4.00;1.20;;;24.90;81.70;;;;;;4997971;28;20038;-75
2023/09/24 13:40:14;;;;;;;1.30;0.80;;;24.80;81.70;;;;;;4997230;28;20041;-75
2023/09/24 13:43:02;;;;;;;2.60;1.00;;;25.10;79.30;;;;;;4998165;28;20462;-75
2023/09/24 13:45:49;;;;;;;2.95;1.00;;;24.90;80.80;;;;;;4984153;28;20497;-75
2023/09/24 13:48:35;;;;;;;2.10;1.05;;;25.00;80.80;;;;;;5000706;28;20049;-74
2023/09/24 13:51:21;;;;;;;2.08;1.08;;;24.50;80.50;;;;;;5001227;28;20053;-75
2023/09/24 13:54:09;;;;;;;2.08;1.00;;;24.50;82.70;;;;;;4974280;28;20668;-74
2023/09/24 13:56:55;;;;;;;3.88;1.10;;;24.20;82.30;;;;;;4999027;28;20045;-75
2023/09/24 13:59:40;;;;;;;4.07;0.98;;;24.00;80.80;;;;;;5002930;28;20056;-75
2023/09/24 14:02:26;;;;;;;2.20;1.23;;;23.90;82.80;;;;;;5006515;28;20466;-75
2023/09/24 14:05:12;;;;;;;2.10;1.17;;;23.80;82.70;;;;;;4995739;28;20467;-74
2023/09/24 14:14:08;;;;;;;5.13;1.67;;;23.20;85.10;;;;;;5002530;28;20129;-74
2023/09/24 14:16:54;;;;;;;5.65;1.10;;;22.80;86.50;;;;;;5002225;28;20033;-75
2023/09/24 14:19:40;;;;;;;1.27;0.90;;;22.60;85.70;;;;;;4983284;28;20080;-75
2023/09/24 14:22:26;;;;;;;2.05;1.10;;;22.50;86.70;;;;;;5028866;28;20037;-75
2023/09/24 14:25:12;;;;;;;3.30;1.00;;;22.50;86.30;;;;;;4982069;28;20527;-75
2023/09/24 14:28:01;;;;;;;1.85;1.00;;;22.20;86.80;;;;;;4997269;28;20037;-75
2023/09/24 14:30:47;;;;;;;3.67;1.33;;;22.20;88.30;;;;;;5005050;28;20159;-77
2023/09/24 14:33:36;;;;;;;2.35;1.02;;;22.50;87.70;;;;;;5001895;28;20104;-78
2023/09/24 14:36:22;;;;;;;2.42;0.98;;;22.50;87.40;;;;;;4986145;28;20104;-78
2023/09/24 14:39:09;;;;;;;2.05;1.00;;;22.50;86.20;;;;;;4983083;28;20053;-77